Time;durP1;ratioP1;P1;durP2;ratioP2;P2;SDS_P1;SDS_P2;PMS_P1;PMS_P2;Temp;Humidity;BMP_temperature;BMP_pressure;BME280_temperature;BME280_humidity;BME280_pressure;Samples;Min_cycle;Max_cycle;Signal;HPM_P1;HPM_P2
2022/07/02 00:00:12;;;;;;;10.40;5.53;;;;;;;-145.18;100.00;46660.41;4858065;29;20117;-72
2022/07/02 00:02:42;;;;;;;13.07;6.13;;;;;;;-145.18;100.00;46660.41;4857341;29;20045;-72
2022/07/02 00:05:07;;;;;;;10.97;6.17;;;;;;;-145.18;100.00;46660.41;4858070;29;20037;-72
2022/07/02 00:07:33;;;;;;;11.63;6.47;;;;;;;-145.18;100.00;46660.41;4857983;29;20034;-73
2022/07/02 00:09:59;;;;;;;10.27;6.10;;;;;;;-145.18;100.00;46660.41;4857854;29;20041;-72
2022/07/02 00:12:27;;;;;;;10.67;6.10;;;;;;;-145.18;100.00;46660.41;4857930;29;20046;-72
2022/07/02 00:14:59;;;;;;;9.53;5.63;;;;;;;-145.18;100.00;46660.41;4857660;29;20077;-72
2022/07/02 00:17:25;;;;;;;10.47;5.83;;;;;;;-145.18;100.00;46660.41;4857945;29;20113;-72
2022/07/02 00:19:52;;;;;;;8.23;5.90;;;;;;;-145.18;100.00;46660.41;4857722;29;20129;-72
2022/07/02 00:22:18;;;;;;;9.77;5.73;;;;;;;-145.18;100.00;46660.41;4857774;29;20040;-72
2022/07/02 00:24:44;;;;;;;9.53;5.57;;;;;;;-145.18;100.00;46660.41;4857569;29;20407;-72
2022/07/02 00:27:12;;;;;;;11.33;5.43;;;;;;;-145.18;100.00;46660.41;4858000;29;20096;-72
2022/07/02 00:29:49;;;;;;;10.30;5.57;;;;;;;-145.18;100.00;46660.41;4857537;29;20168;-73
2022/07/02 00:32:14;;;;;;;8.43;5.50;;;;;;;-145.18;100.00;46660.41;4857749;29;20043;-72
2022/07/02 00:34:44;;;;;;;14.83;5.80;;;;;;;-145.18;100.00;46660.41;4857603;29;20049;-72
2022/07/02 00:37:10;;;;;;;11.00;5.47;;;;;;;-145.18;100.00;46660.41;4857803;29;20408;-72
2022/07/02 00:39:37;;;;;;;8.37;5.10;;;;;;;-145.18;100.00;46660.41;4857660;29;20542;-72
2022/07/02 00:42:04;;;;;;;11.83;5.57;;;;;;;-145.18;100.00;46660.41;4857654;29;20033;-72
2022/07/02 00:44:31;;;;;;;11.37;5.50;;;;;;;-145.18;100.00;46660.41;4841234;29;20116;-72
2022/07/02 00:47:05;;;;;;;8.77;5.10;;;;;;;-145.18;100.00;46660.41;4857410;29;20049;-72
2022/07/02 00:49:32;;;;;;;8.80;5.10;;;;;;;-145.18;100.00;46660.41;4857497;29;20486;-72
2022/07/02 00:51:59;;;;;;;11.33;5.43;;;;;;;-145.18;100.00;46660.41;4857561;29;20040;-72
2022/07/02 00:54:24;;;;;;;8.90;5.90;;;;;;;-145.18;100.00;46660.41;4857841;29;20459;-72
2022/07/02 00:56:52;;;;;;;9.17;5.20;;;;;;;-145.18;100.00;46660.41;4857494;29;20116;-72
2022/07/02 00:59:18;;;;;;;11.00;5.40;;;;;;;-145.18;100.00;46660.41;4857731;29;20037;-72
2022/07/02 01:01:43;;;;;;;11.20;5.60;;;;;;;-145.18;100.00;46660.41;4857170;29;20145;-72
2022/07/02 01:04:13;;;;;;;8.47;5.00;;;;;;;-145.18;100.00;46660.41;4857643;29;20037;-72
2022/07/02 01:06:41;;;;;;;13.57;5.50;;;;;;;-145.18;100.00;46660.41;4857189;29;20540;-71
2022/07/02 01:11:55;;;;;;;11.67;5.57;;;;;;;-145.18;100.00;46631.09;4857561;29;20060;-71
2022/07/02 01:14:21;;;;;;;10.30;3.97;;;;;;;-145.18;100.00;46631.09;4857795;29;20049;-72
2022/07/02 01:16:47;;;;;;;9.83;3.67;;;;;;;-145.18;100.00;46635.00;4860316;29;20042;-72
2022/07/02 01:19:17;;;;;;;7.97;3.67;;;;;;;-145.18;100.00;46633.06;4860606;29;20037;-72
2022/07/02 01:22:08;;;;;;;10.30;3.93;;;;;;;-145.18;100.00;46631.09;4860340;29;20061;-72
2022/07/02 01:24:33;;;;;;;6.93;3.57;;;;;;;-145.18;100.00;46636.94;4860427;29;20399;-72
2022/07/02 01:26:58;;;;;;;6.23;3.10;;;;;;;-145.18;100.00;46638.91;4860503;29;20030;-72
2022/07/02 01:29:24;;;;;;;6.97;3.10;;;;;;;-145.18;100.00;46638.91;4860134;29;20490;-72
2022/07/02 01:31:49;;;;;;;9.43;3.70;;;;;;;-145.18;100.00;46633.06;4860320;29;20101;-72
2022/07/02 01:34:14;;;;;;;5.93;3.20;;;;;;;-145.18;100.00;46636.94;4860435;29;20077;-72
2022/07/02 01:36:40;;;;;;;8.80;3.13;;;;;;;-145.18;100.00;46635.00;4860146;29;20052;-72
2022/07/02 01:39:05;;;;;;;9.47;2.90;;;;;;;-145.18;100.00;46636.94;4860241;29;20124;-72
2022/07/02 01:41:40;;;;;;;5.50;2.90;;;;;;;-145.18;100.00;46638.91;4843546;29;20068;-72
2022/07/02 01:44:08;;;;;;;5.78;3.05;;;;;;;-145.18;100.00;46638.91;4860182;29;20073;-72
2022/07/02 01:46:35;;;;;;;6.00;3.00;;;;;;;-145.18;100.00;46636.94;4860175;29;20049;-72
2022/07/02 01:49:00;;;;;;;7.20;3.43;;;;;;;-145.18;100.00;46636.94;4860220;29;20078;-72
2022/07/02 01:51:26;;;;;;;6.07;3.13;;;;;;;-145.18;100.00;46636.94;4860218;29;20029;-72
2022/07/02 01:53:52;;;;;;;4.17;3.20;;;;;;;-145.18;100.00;46638.91;4860012;29;20071;-71
2022/07/02 01:56:17;;;;;;;6.27;4.00;;;;;;;-145.18;100.00;46638.91;4859858;29;20037;-71
2022/07/02 01:58:43;;;;;;;12.17;3.40;;;;;;;-145.18;100.00;46636.94;4843271;29;20037;-71
2022/07/02 02:03:43;;;;;;;8.20;4.00;;;;;;;-145.18;100.00;46636.94;4750664;23;20048;-72
2022/07/02 02:06:09;;;;;;;11.73;4.00;;;;;;;-145.18;100.00;46631.09;4916067;29;20032;-72
2022/07/02 02:08:34;;;;;;;8.57;4.03;;;;;;;-145.18;100.00;46640.88;4915654;29;20496;-72
2022/07/02 02:11:00;;;;;;;9.23;4.47;;;;;;;-145.18;100.00;46635.00;4916062;29;20507;-72
2022/07/02 02:13:25;;;;;;;6.80;3.80;;;;;;;-145.18;100.00;46636.94;4915551;29;20032;-72
2022/07/02 02:15:50;;;;;;;12.60;3.90;;;;;;;-145.18;100.00;46635.00;4899161;29;20032;-72
2022/07/02 02:18:16;;;;;;;8.60;4.97;;;;;;;-145.18;100.00;46633.06;4915531;29;20036;-72
2022/07/02 02:20:41;;;;;;;11.53;4.47;;;;;;;-145.18;100.00;46660.41;4916087;29;20036;-72
2022/07/02 02:23:06;;;;;;;7.17;4.40;;;;;;;-145.18;100.00;46633.06;4915346;29;20032;-72
2022/07/02 02:25:32;;;;;;;12.33;4.60;;;;;;;-145.18;100.00;46636.94;4915821;29;20038;-72
2022/07/02 02:27:58;;;;;;;6.83;4.27;;;;;;;-145.18;100.00;46638.91;4915062;29;20054;-72
2022/07/02 02:30:24;;;;;;;7.17;4.10;;;;;;;-145.18;100.00;46660.41;4915466;29;20091;-72
2022/07/02 02:32:49;;;;;;;5.93;3.93;;;;;;;-145.18;100.00;46631.09;4915042;29;20028;-72
2022/07/02 02:35:15;;;;;;;9.77;4.13;;;;;;;-145.18;100.00;46636.94;4915689;29;20157;-72
2022/07/02 02:37:40;;;;;;;16.53;4.43;;;;;;;-145.18;100.00;46633.06;4915258;29;20043;-71
2022/07/02 02:40:07;;;;;;;9.97;4.00;;;;;;;-145.18;100.00;46635.00;4915240;29;20076;-72
2022/07/02 02:42:32;;;;;;;4.77;3.20;;;;;;;-145.18;100.00;46636.94;4898154;29;20043;-72
2022/07/02 02:44:57;;;;;;;9.37;3.13;;;;;;;-145.18;100.00;46635.00;4898140;29;20127;-72
2022/07/02 02:47:23;;;;;;;10.40;3.03;;;;;;;-145.18;100.00;46635.00;4915142;29;20111;-72
2022/07/02 02:49:49;;;;;;;5.10;3.47;;;;;;;-145.18;100.00;46633.06;4915280;29;20071;-72
2022/07/02 02:52:14;;;;;;;6.27;2.80;;;;;;;-145.18;100.00;46635.00;4915051;29;20067;-72
2022/07/02 02:54:39;;;;;;;10.10;3.30;;;;;;;-145.18;100.00;46636.94;4915100;29;20561;-72
2022/07/02 02:57:05;;;;;;;10.70;3.17;;;;;;;-145.18;100.00;46640.88;4913767;29;20040;-72
2022/07/02 02:59:30;;;;;;;10.73;3.23;;;;;;;-145.18;100.00;46642.81;4914742;29;20111;-72
2022/07/02 03:01:56;;;;;;;6.17;3.00;;;;;;;-145.18;100.00;46638.91;4914421;29;20032;-72
2022/07/02 03:04:21;;;;;;;8.93;3.37;;;;;;;-145.18;100.00;46636.94;4915201;29;20032;-72
2022/07/02 03:06:46;;;;;;;9.50;3.23;;;;;;;-145.18;100.00;46640.88;4914747;29;20024;-72
2022/07/02 03:09:12;;;;;;;7.23;3.20;;;;;;;-145.18;100.00;46640.88;4914953;29;20131;-72
2022/07/02 03:11:37;;;;;;;7.27;3.17;;;;;;;-145.18;100.00;46636.94;4915225;29;20508;-72
2022/07/02 03:14:02;;;;;;;5.63;2.90;;;;;;;-145.18;100.00;46642.81;4914535;29;20043;-72
2022/07/02 03:16:28;;;;;;;8.30;2.83;;;;;;;-145.18;100.00;46642.81;4914916;29;20039;-72
2022/07/02 03:18:53;;;;;;;8.40;3.20;;;;;;;-145.18;100.00;46636.94;4914547;29;20036;-73
2022/07/02 03:21:18;;;;;;;7.10;3.27;;;;;;;-145.18;100.00;46642.81;4914942;29;20052;-72
2022/07/02 03:23:44;;;;;;;6.70;2.90;;;;;;;-145.18;100.00;46638.91;4913408;29;20040;-72
2022/07/02 03:26:09;;;;;;;9.47;2.90;;;;;;;-145.18;100.00;46642.81;4897860;29;20038;-72
2022/07/02 03:28:35;;;;;;;9.57;3.40;;;;;;;-145.18;100.00;46640.88;4914396;29;20044;-72
2022/07/02 03:31:00;;;;;;;7.93;3.40;;;;;;;-145.18;100.00;46636.94;4914462;29;20086;-72
2022/07/02 03:33:25;;;;;;;6.57;3.00;;;;;;;-145.18;100.00;46638.91;4914341;29;20042;-72
2022/07/02 03:35:52;;;;;;;6.80;3.40;;;;;;;-145.18;100.00;46635.00;4914495;29;20116;-72
2022/07/02 03:38:17;;;;;;;8.77;3.93;;;;;;;-145.18;100.00;46638.91;4913809;29;20040;-72
2022/07/02 03:40:42;;;;;;;7.60;3.60;;;;;;;-145.18;100.00;46638.91;4914614;29;20503;-72
2022/07/02 03:43:08;;;;;;;8.00;4.00;;;;;;;-145.18;100.00;46636.94;4914071;29;20504;-72
2022/07/02 03:45:33;;;;;;;14.63;3.97;;;;;;;-145.18;100.00;46635.00;4914759;29;20075;-72
2022/07/02 03:47:58;;;;;;;5.93;4.20;;;;;;;-145.18;100.00;46638.91;4913948;29;20040;-73
2022/07/02 03:50:24;;;;;;;8.57;3.80;;;;;;;-145.18;100.00;46633.06;4912309;29;20504;-72
2022/07/02 03:52:49;;;;;;;5.90;3.53;;;;;;;-145.18;100.00;46635.00;4893430;29;20662;-72
2022/07/02 03:55:15;;;;;;;8.23;3.17;;;;;;;-145.18;100.00;46635.00;4891723;29;20045;-72
2022/07/02 03:57:40;;;;;;;8.53;4.23;;;;;;;-145.18;100.00;46635.00;4890347;29;20068;-72
2022/07/02 04:00:07;;;;;;;7.00;3.93;;;;;;;-145.18;100.00;46636.94;4894682;29;20093;-72
2022/07/02 04:02:32;;;;;;;9.63;3.97;;;;;;;-145.18;100.00;46633.06;4894683;29;20060;-72
2022/07/02 04:04:57;;;;;;;8.90;4.30;;;;;;;-145.18;100.00;46633.06;4895188;29;20047;-72
2022/07/02 04:07:23;;;;;;;7.47;4.03;;;;;;;-145.18;100.00;46633.06;4878100;29;20782;-72
2022/07/02 04:09:48;;;;;;;7.60;4.17;;;;;;;-145.18;100.00;46629.13;4905305;29;20054;-72
2022/07/02 04:12:13;;;;;;;5.67;3.97;;;;;;;-145.18;100.00;46635.00;4895442;29;20072;-72
2022/07/02 04:14:39;;;;;;;10.60;4.10;;;;;;;-145.18;100.00;46635.00;4895112;29;20124;-72
2022/07/02 04:17:05;;;;;;;9.53;4.37;;;;;;;-145.18;100.00;46629.13;4894239;29;20048;-72
2022/07/02 04:19:30;;;;;;;7.83;4.43;;;;;;;-145.18;100.00;46636.94;4893803;29;20116;-72
2022/07/02 04:21:56;;;;;;;9.37;4.37;;;;;;;-145.18;100.00;46633.06;4878176;29;20132;-72
2022/07/02 04:24:21;;;;;;;8.43;5.00;;;;;;;-145.18;100.00;46636.94;4894555;29;20048;-72
2022/07/02 04:26:47;;;;;;;7.80;4.30;;;;;;;-145.18;100.00;46636.94;4894643;29;20072;-72
2022/07/02 04:29:12;;;;;;;7.13;3.77;;;;;;;-145.18;100.00;46636.94;4902632;29;20044;-72
2022/07/02 04:31:38;;;;;;;5.40;3.70;;;;;;;-145.18;100.00;46636.94;4900941;29;20036;-72
2022/07/02 04:34:03;;;;;;;14.03;4.00;;;;;;;-145.18;100.00;46638.91;4893192;29;20041;-72
2022/07/02 04:36:28;;;;;;;7.53;3.63;;;;;;;-145.18;100.00;46635.00;4894634;29;20032;-72
2022/07/02 04:38:54;;;;;;;8.07;3.50;;;;;;;-145.18;100.00;46636.94;4893983;29;20545;-72
2022/07/02 04:41:19;;;;;;;9.97;3.87;;;;;;;-145.18;100.00;46635.00;4894546;29;20042;-72
2022/07/02 04:43:45;;;;;;;6.93;3.50;;;;;;;-145.18;100.00;46638.91;4881013;29;20419;-72
2022/07/02 04:46:10;;;;;;;9.63;3.20;;;;;;;-145.18;100.00;46635.00;4913788;29;20040;-72
2022/07/02 04:48:35;;;;;;;12.90;3.27;;;;;;;-145.18;100.00;46635.00;4914441;29;20044;-72
2022/07/02 04:51:01;;;;;;;8.10;3.37;;;;;;;-145.18;100.00;46636.94;4917581;29;20035;-72
2022/07/02 04:53:27;;;;;;;8.43;3.50;;;;;;;-145.18;100.00;46633.06;4917280;29;20086;-72
2022/07/02 04:55:52;;;;;;;6.67;3.60;;;;;;;-145.18;100.00;46636.94;4917551;29;20032;-73
2022/07/02 04:58:17;;;;;;;6.40;3.50;;;;;;;-145.18;100.00;46635.00;4905136;29;20032;-72
2022/07/02 05:00:43;;;;;;;7.50;3.80;;;;;;;-145.18;100.00;46633.06;4898673;29;20033;-72
2022/07/02 05:03:08;;;;;;;7.30;4.27;;;;;;;-145.18;100.00;46635.00;4897143;29;20494;-72
2022/07/02 05:05:33;;;;;;;7.47;4.23;;;;;;;-145.18;100.00;46636.94;4898656;29;20459;-72
2022/07/02 05:07:59;;;;;;;11.57;4.30;;;;;;;-145.18;100.00;46633.06;4897377;29;20084;-72
2022/07/02 05:10:24;;;;;;;8.57;4.13;;;;;;;-145.18;100.00;46631.09;4898399;29;20068;-72
2022/07/02 05:12:49;;;;;;;9.10;4.37;;;;;;;-145.18;100.00;46629.13;4897859;29;20032;-72
2022/07/02 05:15:15;;;;;;;11.53;4.37;;;;;;;-145.18;100.00;46631.09;4898770;29;20036;-72
2022/07/02 05:17:40;;;;;;;7.57;3.87;;;;;;;-145.18;100.00;46629.13;4898002;29;20398;-72
2022/07/02 05:20:06;;;;;;;8.17;4.20;;;;;;;-145.18;100.00;46633.06;4898143;29;20092;-72
2022/07/02 05:22:31;;;;;;;7.57;3.77;;;;;;;-145.18;100.00;46629.13;4897574;29;20035;-72
2022/07/02 05:24:57;;;;;;;10.07;4.07;;;;;;;-145.18;100.00;46633.06;4898014;29;20059;-72
2022/07/02 05:27:22;;;;;;;9.33;4.73;;;;;;;-145.18;100.00;46631.09;4897860;29;20032;-72
2022/07/02 05:29:47;;;;;;;10.37;4.47;;;;;;;-145.18;100.00;46631.09;4897895;29;20093;-72
2022/07/02 05:32:13;;;;;;;10.63;3.80;;;;;;;-145.18;100.00;46633.06;4897759;29;20072;-72
2022/07/02 05:34:38;;;;;;;8.40;3.90;;;;;;;-145.18;100.00;46631.09;4897794;29;20072;-72
2022/07/02 05:37:04;;;;;;;9.90;4.77;;;;;;;-145.18;100.00;46636.94;4896562;29;20045;-72
2022/07/02 05:39:29;;;;;;;7.80;4.27;;;;;;;-145.18;100.00;46633.06;4897567;29;20049;-72
2022/07/02 05:41:55;;;;;;;11.27;4.40;;;;;;;-145.18;100.00;46633.06;4897694;29;20093;-72
2022/07/02 05:44:21;;;;;;;8.30;3.97;;;;;;;-145.18;100.00;46635.00;4896909;29;20047;-72
2022/07/02 05:46:46;;;;;;;9.80;4.73;;;;;;;-145.18;100.00;46633.06;4897180;29;20040;-72
2022/07/02 05:49:11;;;;;;;10.17;4.50;;;;;;;-145.18;100.00;46631.09;4896111;29;20040;-72
2022/07/02 05:51:37;;;;;;;8.93;4.60;;;;;;;-145.18;100.00;46635.00;4878078;29;20120;-72
2022/07/02 05:54:02;;;;;;;6.93;4.20;;;;;;;-145.18;100.00;46629.13;4896203;29;20037;-72
2022/07/02 05:56:27;;;;;;;13.13;5.10;;;;;;;-145.18;100.00;46629.13;4879694;29;20044;-72
2022/07/02 05:58:53;;;;;;;9.40;4.57;;;;;;;-145.18;100.00;46631.09;4896725;29;20040;-72
2022/07/02 06:01:18;;;;;;;9.33;4.60;;;;;;;-145.18;100.00;46631.09;4895378;29;20052;-72
2022/07/02 06:03:44;;;;;;;11.63;5.00;;;;;;;-145.18;100.00;46631.09;4896537;29;20116;-72
2022/07/02 06:08:53;;;;;;;9.07;4.17;;;;;;;-145.18;100.00;46635.00;4877825;29;20078;-72
2022/07/02 06:11:19;;;;;;;10.73;4.33;;;;;;;-145.18;100.00;46633.06;4896300;29;20083;-72
2022/07/02 06:13:44;;;;;;;10.80;5.10;;;;;;;-145.18;100.00;46635.00;4896826;29;20032;-72
2022/07/02 06:16:10;;;;;;;9.77;4.70;;;;;;;-145.18;100.00;46635.00;4904874;29;20071;-72
2022/07/02 06:18:35;;;;;;;10.07;4.30;;;;;;;-145.18;100.00;46633.06;4896080;29;20470;-72
2022/07/02 06:21:01;;;;;;;11.93;4.30;;;;;;;-145.18;100.00;46636.94;4912429;29;20118;-72
2022/07/02 06:23:26;;;;;;;7.83;4.23;;;;;;;-145.18;100.00;46640.88;4915180;29;20048;-72
2022/07/02 06:25:52;;;;;;;7.93;3.80;;;;;;;-145.18;100.00;46638.91;4904434;29;20104;-72
2022/07/02 06:28:18;;;;;;;8.50;4.30;;;;;;;-145.18;100.00;46642.81;4896223;29;20040;-72
2022/07/02 06:30:43;;;;;;;7.93;4.47;;;;;;;-145.18;100.00;46640.88;4879719;29;20037;-72
2022/07/02 06:33:09;;;;;;;8.30;4.47;;;;;;;-145.18;100.00;46640.88;4911717;29;20060;-72
2022/07/02 06:35:34;;;;;;;9.53;4.10;;;;;;;-145.18;100.00;46644.78;4915303;29;20430;-72
2022/07/02 06:37:59;;;;;;;10.93;4.47;;;;;;;-145.18;100.00;46644.78;4912848;29;20600;-72
2022/07/02 06:40:25;;;;;;;11.07;4.33;;;;;;;-145.18;100.00;46648.69;4877426;29;20123;-72
2022/07/02 06:42:50;;;;;;;8.30;4.70;;;;;;;-145.18;100.00;46650.63;4883883;29;20068;-73
2022/07/02 06:45:16;;;;;;;9.10;4.90;;;;;;;-145.18;100.00;46656.50;4883205;29;20105;-72
2022/07/02 06:47:42;;;;;;;7.97;4.20;;;;;;;-145.18;100.00;46654.53;4895600;29;20040;-72
2022/07/02 06:50:09;;;;;;;9.37;4.93;;;;;;;-145.18;100.00;46652.59;4894872;29;20049;-72
2022/07/02 06:52:35;;;;;;;8.97;4.33;;;;;;;-145.18;100.00;46654.53;4895355;29;20546;-72
2022/07/02 06:55:00;;;;;;;11.27;4.40;;;;;;;-145.18;100.00;46648.69;4893745;29;20048;-72
2022/07/02 06:57:25;;;;;;;7.57;3.73;;;;;;;-145.18;100.00;46654.53;4895538;29;20147;-72
2022/07/02 06:59:52;;;;;;;6.60;3.77;;;;;;;-145.18;100.00;46660.41;4894058;29;20409;-72
2022/07/02 07:02:17;;;;;;;6.80;3.67;;;;;;;-145.18;100.00;46656.50;4894689;29;20587;-72
2022/07/02 07:04:43;;;;;;;8.20;3.97;;;;;;;-145.18;100.00;46664.31;4894355;29;20104;-73
2022/07/02 07:07:10;;;;;;;7.33;3.20;;;;;;;-145.18;100.00;46664.31;4894574;29;20053;-73
2022/07/02 07:09:36;;;;;;;6.17;3.63;;;;;;;-145.18;100.00;46664.31;4894250;29;20036;-73
2022/07/02 07:12:06;;;;;;;8.07;2.67;;;;;;;-145.18;100.00;46662.34;4894124;29;20045;-73
2022/07/02 07:14:35;;;;;;;6.20;2.67;;;;;;;-145.18;100.00;46646.72;4894715;29;20463;-72
2022/07/02 07:17:01;;;;;;;5.73;2.67;;;;;;;-145.18;100.00;46635.00;4894608;29;20119;-72
2022/07/02 07:19:27;;;;;;;3.90;2.53;;;;;;;-145.18;100.00;46597.88;4878496;29;20036;-73
2022/07/02 07:21:52;;;;;;;3.33;1.77;;;;;;;-145.18;100.00;46552.97;4876492;29;20035;-72
2022/07/02 07:24:18;;;;;;;4.97;2.57;;;;;;;-145.18;100.00;46570.53;4875439;29;20048;-73
2022/07/02 07:26:43;;;;;;;9.33;2.83;;;;;;;-145.18;100.00;46627.19;4876103;29;20037;-73
2022/07/02 07:29:09;;;;;;;5.30;2.30;;;;;;;-145.18;100.00;46570.53;4875926;29;20045;-73
2022/07/02 07:31:35;;;;;;;4.37;2.70;;;;;;;-145.18;100.00;46582.25;4876234;29;20029;-72
2022/07/02 07:34:01;;;;;;;7.70;2.83;;;;;;;-145.18;100.00;46574.44;4874860;29;20037;-72
2022/07/02 07:36:27;;;;;;;5.63;2.53;;;;;;;-145.18;100.00;46564.69;4877275;29;20398;-72
2022/07/02 07:38:53;;;;;;;6.40;2.73;;;;;;;-145.18;100.00;46574.44;4876439;29;20043;-72
2022/07/02 07:41:20;;;;;;;5.20;1.90;;;;;;;-145.18;100.00;46541.25;4876822;29;20556;-72
2022/07/02 07:43:45;;;;;;;5.70;2.10;;;;;;;-145.18;100.00;46537.34;4876876;29;20029;-72
2022/07/02 07:46:11;;;;;;;2.67;1.43;;;;;;;-145.18;100.00;46539.28;4877037;29;20577;-72
2022/07/02 07:48:36;;;;;;;3.20;2.07;;;;;;;-145.18;100.00;46537.34;4876871;29;20029;-72
2022/07/02 07:51:02;;;;;;;6.13;2.23;;;;;;;-145.18;100.00;46558.81;4876654;29;20497;-72
2022/07/02 07:53:28;;;;;;;3.07;1.50;;;;;;;-145.18;100.00;46560.78;4876232;29;20120;-72
2022/07/02 07:55:54;;;;;;;7.23;2.13;;;;;;;-145.18;100.00;46560.78;4876271;29;20037;-72
2022/07/02 07:58:20;;;;;;;10.57;1.83;;;;;;;-145.18;100.00;46564.69;4876336;29;20047;-72
2022/07/02 08:00:47;;;;;;;6.27;2.43;;;;;;;-145.18;100.00;46547.09;4882857;29;20028;-72
2022/07/02 08:03:17;;;;;;;4.40;2.40;;;;;;;-145.18;100.00;46562.72;4876504;29;20394;-72
2022/07/02 08:05:46;;;;;;;5.47;2.00;;;;;;;-145.18;100.00;46552.97;4893381;29;20059;-72
2022/07/02 08:08:11;;;;;;;7.17;2.17;;;;;;;-145.18;100.00;46558.81;4893848;29;20020;-72
2022/07/02 08:10:37;;;;;;;4.53;1.73;;;;;;;-145.18;100.00;46560.78;4894600;29;20500;-72
2022/07/02 08:13:02;;;;;;;5.47;1.60;;;;;;;-145.18;100.00;46552.97;4894107;29;20040;-72
2022/07/02 08:15:27;;;;;;;3.83;1.90;;;;;;;-145.18;100.00;46560.78;4894986;29;20096;-72
2022/07/02 08:17:53;;;;;;;4.67;1.87;;;;;;;-145.18;100.00;46558.81;4894448;29;20415;-72
2022/07/02 08:20:20;;;;;;;3.67;1.80;;;;;;;-145.18;100.00;46562.72;4895000;29;20524;-72
2022/07/02 08:22:46;;;;;;;5.63;2.00;;;;;;;-145.18;100.00;46551.00;4894647;29;20051;-72
2022/07/02 08:25:13;;;;;;;4.83;1.90;;;;;;;-145.18;100.00;46558.81;4897735;29;20678;-73
2022/07/02 08:27:43;;;;;;;3.67;1.77;;;;;;;-145.18;100.00;46551.00;4898687;29;20037;-72
2022/07/02 08:30:09;;;;;;;3.67;1.40;;;;;;;-145.18;100.00;46554.91;4898051;29;20048;-72
2022/07/02 08:32:35;;;;;;;3.50;1.30;;;;;;;-145.18;100.00;46580.31;4898537;29;20071;-73
2022/07/02 08:35:01;;;;;;;3.30;1.20;;;;;;;-145.18;100.00;46566.63;4897530;29;20095;-72
2022/07/02 08:37:26;;;;;;;3.43;1.43;;;;;;;-145.18;100.00;46572.50;4881667;29;20036;-72
2022/07/02 08:39:52;;;;;;;4.67;1.23;;;;;;;-145.18;100.00;46568.59;4898026;29;20501;-72
2022/07/02 08:42:29;;;;;;;4.60;1.20;;;;;;;-145.18;100.00;46582.25;4898421;29;20764;-72
2022/07/02 08:44:56;;;;;;;5.33;1.20;;;;;;;-145.18;100.00;46607.66;4897358;29;20570;-72
2022/07/02 08:47:23;;;;;;;5.30;1.17;;;;;;;-145.18;100.00;46597.88;4898054;29;20152;-72
2022/07/02 08:49:51;;;;;;;2.70;1.07;;;;;;;-145.18;100.00;46609.59;4897693;29;20072;-72
2022/07/02 08:52:18;;;;;;;3.03;1.10;;;;;;;-145.18;100.00;46592.03;4898060;29;20037;-72
2022/07/02 08:54:45;;;;;;;6.53;1.10;;;;;;;-145.18;100.00;46613.50;4897601;29;20036;-72
2022/07/02 08:57:12;;;;;;;4.47;1.67;;;;;;;-145.18;100.00;46615.47;4880812;29;20044;-72
2022/07/02 08:59:38;;;;;;;3.27;1.03;;;;;;;-145.18;100.00;46599.84;4897637;29;20048;-72
2022/07/02 09:02:05;;;;;;;4.30;1.13;;;;;;;-145.18;100.00;46590.06;4897610;29;20052;-72
2022/07/02 09:04:32;;;;;;;2.20;1.03;;;;;;;-145.18;100.00;46603.75;4897479;29;20474;-72
2022/07/02 09:07:01;;;;;;;3.57;1.10;;;;;;;-145.18;100.00;46635.00;4897669;29;20055;-73
2022/07/02 09:09:27;;;;;;;1.90;1.03;;;;;;;-145.18;100.00;46607.66;4911531;29;20067;-73
2022/07/02 09:11:53;;;;;;;7.67;1.13;;;;;;;-145.18;100.00;47000.28;4916779;29;20489;-72
2022/07/02 09:14:19;;;;;;;3.73;0.97;;;;;;;-145.18;100.00;46779.56;4916081;29;20059;-73
2022/07/02 09:16:46;;;;;;;5.87;1.07;;;;;;;-145.18;100.00;47215.19;4916682;29;20044;-72
2022/07/02 09:19:11;;;;;;;8.73;1.00;;;;;;;-145.18;100.00;47115.56;4915851;29;20036;-73
2022/07/02 09:21:55;;;;;;;3.67;1.00;;;;;;;-145.18;100.00;47164.38;4916449;29;20084;-73
2022/07/02 09:24:37;;;;;;;1.97;1.00;;;;;;;-145.18;100.00;47168.28;4916052;29;20032;-72
2022/07/02 09:27:05;;;;;;;5.50;1.30;;;;;;;-145.18;100.00;47127.28;4907242;29;20461;-72
2022/07/02 09:29:57;;;;;;;6.23;1.20;;;;;;;-145.18;100.00;47146.81;4896950;29;20048;-73
2022/07/02 09:32:23;;;;;;;5.83;1.40;;;;;;;-145.18;100.00;47133.13;4897324;29;20041;-72
2022/07/02 09:34:51;;;;;;;3.43;0.90;;;;;;;-145.18;100.00;47117.50;4896274;29;20036;-72
2022/07/02 09:37:19;;;;;;;1.73;0.90;;;;;;;-145.18;100.00;47125.31;4896543;29;20039;-73
2022/07/02 09:39:45;;;;;;;6.03;1.23;;;;;;;-145.18;100.00;47133.13;4896210;29;20490;-73
2022/07/02 09:42:11;;;;;;;3.00;1.13;;;;;;;-145.18;100.00;47121.41;4897001;29;20482;-73
2022/07/02 09:44:47;;;;;;;4.13;1.00;;;;;;;-145.18;100.00;47119.47;4879942;29;20036;-73
2022/07/02 09:47:13;;;;;;;4.43;1.00;;;;;;;-145.18;100.00;47107.72;4897042;29;20390;-73
2022/07/02 09:49:48;;;;;;;7.97;1.20;;;;;;;-145.18;100.00;47096.00;4896851;29;20056;-73
2022/07/02 09:52:17;;;;;;;;;;;;;;;-145.18;100.00;47094.06;4897465;29;20059;-73
2022/07/02 09:54:44;;;;;;;2.57;1.43;;;;;;;-145.18;100.00;47096.00;4896126;29;19923;-73
2022/07/02 09:57:12;;;;;;;4.10;1.00;;;;;;;-145.18;100.00;47135.09;4896590;29;20056;-73
2022/07/02 09:59:39;;;;;;;3.20;0.93;;;;;;;-145.18;100.00;47074.53;4896632;29;20083;-73
2022/07/02 10:02:05;;;;;;;3.57;1.00;;;;;;;-145.18;100.00;47068.66;4896965;29;20064;-73
2022/07/02 10:04:32;;;;;;;4.00;1.80;;;;;;;-145.18;100.00;47080.38;4896586;29;20479;-73
2022/07/02 10:06:59;;;;;;;2.60;1.10;;;;;;;-145.18;100.00;47066.72;4896204;29;20056;-73
2022/07/02 10:09:28;;;;;;;2.00;0.97;;;;;;;-145.18;100.00;47043.28;4896485;29;20402;-73
2022/07/02 10:11:54;;;;;;;3.67;1.00;;;;;;;-145.18;100.00;47056.94;4896608;29;20041;-73
2022/07/02 10:14:21;;;;;;;4.60;1.23;;;;;;;-145.18;100.00;47060.84;4894744;29;20088;-73
2022/07/02 10:16:51;;;;;;;3.67;1.37;;;;;;;-145.18;100.00;47027.63;4877859;29;20053;-73
2022/07/02 10:19:18;;;;;;;5.67;1.33;;;;;;;-145.18;100.00;47033.50;4896889;29;20486;-71
2022/07/02 10:21:44;;;;;;;4.93;0.90;;;;;;;-145.18;100.00;47027.63;4896295;29;20437;-73
2022/07/02 10:24:10;;;;;;;5.37;1.20;;;;;;;-145.18;100.00;47033.50;4892139;29;20029;-73
2022/07/02 10:26:37;;;;;;;4.30;1.50;;;;;;;-145.18;100.00;47031.53;4895418;29;20055;-73
2022/07/02 10:29:02;;;;;;;6.07;1.00;;;;;;;-145.18;100.00;47045.22;4895387;29;20523;-73
2022/07/02 10:31:35;;;;;;;3.50;1.40;;;;;;;-145.18;100.00;47070.63;4895880;29;20041;-73
2022/07/02 10:34:31;;;;;;;4.17;1.53;;;;;;;-145.18;100.00;47002.25;4895394;29;20029;-73
2022/07/02 10:36:58;;;;;;;7.88;1.60;;;;;;;-145.18;100.00;47039.34;4894692;29;20028;-73
2022/07/02 10:39:24;;;;;;;3.90;1.40;;;;;;;-145.18;100.00;47078.44;4895671;29;20549;-73
2022/07/02 10:41:50;;;;;;;4.60;1.30;;;;;;;-145.18;100.00;47084.28;4896120;29;20604;-73
2022/07/02 10:44:15;;;;;;;3.57;1.00;;;;;;;-145.18;100.00;47086.25;4895560;29;20040;-73
2022/07/02 10:46:46;;;;;;;3.77;1.40;;;;;;;-145.18;100.00;47084.28;4894178;29;20065;-73
2022/07/02 10:49:12;;;;;;;8.00;1.43;;;;;;;-145.18;100.00;47019.81;4879328;29;20055;-74
2022/07/02 10:51:38;;;;;;;3.47;1.50;;;;;;;-145.18;100.00;47039.34;4877120;29;20064;-73
2022/07/02 10:54:05;;;;;;;2.63;1.10;;;;;;;-145.18;100.00;47035.44;4882480;29;20025;-73
2022/07/02 10:56:49;;;;;;;6.70;1.23;;;;;;;-145.18;100.00;47035.44;4895301;29;20076;-73
2022/07/02 10:59:24;;;;;;;4.33;1.20;;;;;;;-145.18;100.00;47056.94;4893456;29;20032;-73
2022/07/02 11:02:04;;;;;;;3.88;1.13;;;;;;;-145.18;100.00;47068.66;4895222;29;20474;-73
2022/07/02 11:04:29;;;;;;;2.97;1.20;;;;;;;-145.18;100.00;47070.63;4895243;29;20041;-73
2022/07/02 11:07:12;;;;;;;3.57;1.30;;;;;;;-145.18;100.00;47047.19;4895253;29;20029;-73
2022/07/02 11:09:55;;;;;;;6.23;1.13;;;;;;;-145.18;100.00;47045.22;4895318;29;20028;-73
2022/07/02 11:12:40;;;;;;;4.50;1.40;;;;;;;-145.18;100.00;47066.72;4879765;29;20088;-73